sensor_id;sensor_type;location;lat;lon;timestamp;temperature;humidity
25332;DHT22;13284;52.748;13.452;2023-08-06T00:01:39;17.20;99.90
25332;DHT22;13284;52.748;13.452;2023-08-06T00:04:04;17.10;99.90
25332;DHT22;13284;52.748;13.452;2023-08-06T00:06:30;17.10;99.90
25332;DHT22;13284;52.748;13.452;2023-08-06T00:08:55;17.10;99.90
25332;DHT22;13284;52.748;13.452;2023-08-06T00:11:21;17.10;99.90
25332;DHT22;13284;52.748;13.452;2023-08-06T00:13:46;17.10;99.90
25332;DHT22;13284;52.748;13.452;2023-08-06T00:16:12;17.00;99.90
25332;DHT22;13284;52.748;13.452;2023-08-06T00:18:38;17.10;99.90
25332;DHT22;13284;52.748;13.452;2023-08-06T00:21:04;17.10;99.90
25332;DHT22;13284;52.748;13.452;2023-08-06T00:23:30;17.10;99.90
25332;DHT22;13284;52.748;13.452;2023-08-06T00:25:55;17.10;99.90
25332;DHT22;13284;52.748;13.452;2023-08-06T00:28:21;17.10;99.90
25332;DHT22;13284;52.748;13.452;2023-08-06T00:30:46;17.10;99.90
25332;DHT22;13284;52.748;13.452;2023-08-06T00:33:17;17.00;99.90
25332;DHT22;13284;52.748;13.452;2023-08-06T00:35:42;17.00;99.90
25332;DHT22;13284;52.748;13.452;2023-08-06T00:38:08;17.00;99.90
25332;DHT22;13284;52.748;13.452;2023-08-06T00:40:33;17.00;99.90
25332;DHT22;13284;52.748;13.452;2023-08-06T00:42:59;17.00;99.90
25332;DHT22;13284;52.748;13.452;2023-08-06T00:45:25;17.00;99.90
25332;DHT22;13284;52.748;13.452;2023-08-06T00:47:50;17.00;99.90
25332;DHT22;13284;52.748;13.452;2023-08-06T00:50:16;17.00;99.90
25332;DHT22;13284;52.748;13.452;2023-08-06T00:52:42;17.10;99.90
25332;DHT22;13284;52.748;13.452;2023-08-06T00:55:08;17.00;99.90
25332;DHT22;13284;52.748;13.452;2023-08-06T00:57:35;17.10;99.90
25332;DHT22;13284;52.748;13.452;2023-08-06T01:00:01;17.10;99.90
25332;DHT22;13284;52.748;13.452;2023-08-06T01:02:26;17.00;99.90
25332;DHT22;13284;52.748;13.452;2023-08-06T01:04:52;17.00;99.90
25332;DHT22;13284;52.748;13.452;2023-08-06T01:13:08;17.10;99.90
25332;DHT22;13284;52.748;13.452;2023-08-06T01:15:41;17.00;99.90
25332;DHT22;13284;52.748;13.452;2023-08-06T01:18:08;17.00;99.90
25332;DHT22;13284;52.748;13.452;2023-08-06T01:20:34;17.00;99.90
25332;DHT22;13284;52.748;13.452;2023-08-06T01:23:00;17.00;99.90
25332;DHT22;13284;52.748;13.452;2023-08-06T01:25:34;17.00;99.90
25332;DHT22;13284;52.748;13.452;2023-08-06T01:28:51;17.00;99.90
25332;DHT22;13284;52.748;13.452;2023-08-06T01:30:59;17.00;99.90
25332;DHT22;13284;52.748;13.452;2023-08-06T01:33:28;17.00;99.90
25332;DHT22;13284;52.748;13.452;2023-08-06T01:35:57;16.90;99.90
25332;DHT22;13284;52.748;13.452;2023-08-06T01:38:24;16.90;99.90
25332;DHT22;13284;52.748;13.452;2023-08-06T01:40:50;16.90;99.90
25332;DHT22;13284;52.748;13.452;2023-08-06T01:43:15;16.90;99.90
25332;DHT22;13284;52.748;13.452;2023-08-06T01:45:41;16.90;99.90
25332;DHT22;13284;52.748;13.452;2023-08-06T01:48:06;16.90;99.90
25332;DHT22;13284;52.748;13.452;2023-08-06T01:50:32;16.90;99.90
25332;DHT22;13284;52.748;13.452;2023-08-06T01:52:57;16.90;99.90
25332;DHT22;13284;52.748;13.452;2023-08-06T01:55:22;16.90;99.90
25332;DHT22;13284;52.748;13.452;2023-08-06T01:57:48;16.90;99.90
25332;DHT22;13284;52.748;13.452;2023-08-06T02:00:14;16.80;99.90
25332;DHT22;13284;52.748;13.452;2023-08-06T02:02:39;16.90;99.90
25332;DHT22;13284;52.748;13.452;2023-08-06T02:05:06;16.90;99.90
25332;DHT22;13284;52.748;13.452;2023-08-06T02:07:32;16.80;99.90
25332;DHT22;13284;52.748;13.452;2023-08-06T02:09:57;16.80;99.90
25332;DHT22;13284;52.748;13.452;2023-08-06T02:12:23;16.80;99.90
25332;DHT22;13284;52.748;13.452;2023-08-06T02:14:48;16.80;99.90
25332;DHT22;13284;52.748;13.452;2023-08-06T02:17:14;16.80;99.90
25332;DHT22;13284;52.748;13.452;2023-08-06T02:19:39;16.80;99.90
25332;DHT22;13284;52.748;13.452;2023-08-06T02:22:05;16.80;99.90
25332;DHT22;13284;52.748;13.452;2023-08-06T02:24:30;16.80;99.90
25332;DHT22;13284;52.748;13.452;2023-08-06T02:26:56;16.80;99.90
25332;DHT22;13284;52.748;13.452;2023-08-06T02:29:21;16.80;99.90
25332;DHT22;13284;52.748;13.452;2023-08-06T02:31:47;16.80;99.90
25332;DHT22;13284;52.748;13.452;2023-08-06T02:34:12;16.80;99.90
25332;DHT22;13284;52.748;13.452;2023-08-06T02:36:38;16.80;99.90
25332;DHT22;13284;52.748;13.452;2023-08-06T02:39:03;16.80;99.90
25332;DHT22;13284;52.748;13.452;2023-08-06T02:41:29;16.80;99.90
25332;DHT22;13284;52.748;13.452;2023-08-06T02:43:54;16.80;99.90
25332;DHT22;13284;52.748;13.452;2023-08-06T02:46:20;16.90;99.90
25332;DHT22;13284;52.748;13.452;2023-08-06T02:48:45;16.80;99.90
25332;DHT22;13284;52.748;13.452;2023-08-06T02:51:11;16.80;99.90
25332;DHT22;13284;52.748;13.452;2023-08-06T02:53:36;16.90;99.90
25332;DHT22;13284;52.748;13.452;2023-08-06T02:56:02;16.90;99.90
25332;DHT22;13284;52.748;13.452;2023-08-06T02:58:28;16.90;99.90
25332;DHT22;13284;52.748;13.452;2023-08-06T03:01:02;16.90;99.90
25332;DHT22;13284;52.748;13.452;2023-08-06T03:03:30;16.80;99.90
25332;DHT22;13284;52.748;13.452;2023-08-06T03:05:55;16.90;99.90
25332;DHT22;13284;52.748;13.452;2023-08-06T03:08:21;16.90;99.90
25332;DHT22;13284;52.748;13.452;2023-08-06T03:10:49;16.90;99.90
25332;DHT22;13284;52.748;13.452;2023-08-06T03:13:15;16.90;99.90
25332;DHT22;13284;52.748;13.452;2023-08-06T03:15:40;16.80;99.90
25332;DHT22;13284;52.748;13.452;2023-08-06T03:18:06;16.90;99.90
25332;DHT22;13284;52.748;13.452;2023-08-06T03:20:34;16.90;99.90
25332;DHT22;13284;52.748;13.452;2023-08-06T03:23:00;16.80;99.90
25332;DHT22;13284;52.748;13.452;2023-08-06T03:25:25;16.80;99.90
25332;DHT22;13284;52.748;13.452;2023-08-06T03:27:51;16.80;99.90
25332;DHT22;13284;52.748;13.452;2023-08-06T03:30:16;16.70;99.90
25332;DHT22;13284;52.748;13.452;2023-08-06T03:32:42;16.70;99.90
25332;DHT22;13284;52.748;13.452;2023-08-06T03:35:07;16.70;99.90
25332;DHT22;13284;52.748;13.452;2023-08-06T03:37:33;16.70;99.90
25332;DHT22;13284;52.748;13.452;2023-08-06T03:39:58;16.70;99.90
25332;DHT22;13284;52.748;13.452;2023-08-06T03:42:24;16.70;99.90
25332;DHT22;13284;52.748;13.452;2023-08-06T03:44:49;16.70;99.90
25332;DHT22;13284;52.748;13.452;2023-08-06T03:47:15;16.70;99.90
25332;DHT22;13284;52.748;13.452;2023-08-06T03:49:40;16.70;99.90
25332;DHT22;13284;52.748;13.452;2023-08-06T03:52:06;16.70;99.90
25332;DHT22;13284;52.748;13.452;2023-08-06T03:54:32;16.70;99.90
25332;DHT22;13284;52.748;13.452;2023-08-06T03:56:57;16.70;99.90
25332;DHT22;13284;52.748;13.452;2023-08-06T03:59:23;16.70;99.90
25332;DHT22;13284;52.748;13.452;2023-08-06T04:01:48;16.70;99.90
25332;DHT22;13284;52.748;13.452;2023-08-06T04:04:14;16.70;99.90
25332;DHT22;13284;52.748;13.452;2023-08-06T04:06:39;16.70;99.90
25332;DHT22;13284;52.748;13.452;2023-08-06T04:09:05;16.70;99.90
25332;DHT22;13284;52.748;13.452;2023-08-06T04:11:30;16.80;99.90
25332;DHT22;13284;52.748;13.452;2023-08-06T04:13:55;16.70;99.90
25332;DHT22;13284;52.748;13.452;2023-08-06T04:16:21;16.80;99.90
25332;DHT22;13284;52.748;13.452;2023-08-06T04:18:47;16.80;99.90
25332;DHT22;13284;52.748;13.452;2023-08-06T04:21:13;16.80;99.90
25332;DHT22;13284;52.748;13.452;2023-08-06T04:23:38;16.80;99.90
25332;DHT22;13284;52.748;13.452;2023-08-06T04:26:04;16.70;99.90
25332;DHT22;13284;52.748;13.452;2023-08-06T04:28:30;16.80;99.90
25332;DHT22;13284;52.748;13.452;2023-08-06T04:30:55;16.80;99.90
25332;DHT22;13284;52.748;13.452;2023-08-06T04:33:21;16.80;99.90
25332;DHT22;13284;52.748;13.452;2023-08-06T04:35:46;16.80;99.90
25332;DHT22;13284;52.748;13.452;2023-08-06T04:38:12;16.80;99.90
25332;DHT22;13284;52.748;13.452;2023-08-06T04:40:37;16.90;99.90
25332;DHT22;13284;52.748;13.452;2023-08-06T04:43:03;16.90;99.90
25332;DHT22;13284;52.748;13.452;2023-08-06T04:45:28;16.90;99.90
25332;DHT22;13284;52.748;13.452;2023-08-06T04:47:54;17.00;99.90
25332;DHT22;13284;52.748;13.452;2023-08-06T04:50:20;16.90;99.90
25332;DHT22;13284;52.748;13.452;2023-08-06T04:52:45;17.00;99.90
25332;DHT22;13284;52.748;13.452;2023-08-06T04:55:11;17.00;99.90
25332;DHT22;13284;52.748;13.452;2023-08-06T04:57:36;16.90;99.90
25332;DHT22;13284;52.748;13.452;2023-08-06T05:00:02;16.90;99.90
25332;DHT22;13284;52.748;13.452;2023-08-06T05:02:28;16.90;99.90
25332;DHT22;13284;52.748;13.452;2023-08-06T05:04:53;16.90;99.90
25332;DHT22;13284;52.748;13.452;2023-08-06T05:07:19;17.00;99.90
25332;DHT22;13284;52.748;13.452;2023-08-06T05:09:44;17.00;99.90
25332;DHT22;13284;52.748;13.452;2023-08-06T05:12:10;17.00;99.90
25332;DHT22;13284;52.748;13.452;2023-08-06T05:14:35;17.00;99.90
25332;DHT22;13284;52.748;13.452;2023-08-06T05:17:01;16.90;99.90
25332;DHT22;13284;52.748;13.452;2023-08-06T05:19:28;17.00;99.90
25332;DHT22;13284;52.748;13.452;2023-08-06T05:21:53;17.00;99.90
25332;DHT22;13284;52.748;13.452;2023-08-06T05:24:19;17.00;99.90
25332;DHT22;13284;52.748;13.452;2023-08-06T05:26:44;17.00;99.90
25332;DHT22;13284;52.748;13.452;2023-08-06T05:29:13;17.00;99.90
25332;DHT22;13284;52.748;13.452;2023-08-06T05:31:38;17.10;99.90
25332;DHT22;13284;52.748;13.452;2023-08-06T05:34:04;17.10;99.90
25332;DHT22;13284;52.748;13.452;2023-08-06T05:36:29;17.00;99.90
25332;DHT22;13284;52.748;13.452;2023-08-06T05:38:55;17.10;99.90
25332;DHT22;13284;52.748;13.452;2023-08-06T05:41:20;17.00;99.90
25332;DHT22;13284;52.748;13.452;2023-08-06T05:43:45;17.10;99.90
25332;DHT22;13284;52.748;13.452;2023-08-06T05:46:11;17.20;99.90
25332;DHT22;13284;52.748;13.452;2023-08-06T05:48:36;17.20;99.90
25332;DHT22;13284;52.748;13.452;2023-08-06T05:51:02;17.30;99.90
25332;DHT22;13284;52.748;13.452;2023-08-06T05:53:27;17.30;99.90
25332;DHT22;13284;52.748;13.452;2023-08-06T05:55:53;17.20;99.90
25332;DHT22;13284;52.748;13.452;2023-08-06T05:58:18;17.30;99.90
25332;DHT22;13284;52.748;13.452;2023-08-06T06:00:45;17.40;99.90
25332;DHT22;13284;52.748;13.452;2023-08-06T06:03:11;17.50;99.90
25332;DHT22;13284;52.748;13.452;2023-08-06T06:05:40;17.50;99.90
25332;DHT22;13284;52.748;13.452;2023-08-06T06:08:05;17.50;99.90
25332;DHT22;13284;52.748;13.452;2023-08-06T06:10:30;17.40;99.90
25332;DHT22;13284;52.748;13.452;2023-08-06T06:12:56;17.40;99.90
25332;DHT22;13284;52.748;13.452;2023-08-06T06:15:22;17.40;99.90
25332;DHT22;13284;52.748;13.452;2023-08-06T06:17:47;17.40;99.90
25332;DHT22;13284;52.748;13.452;2023-08-06T06:20:13;17.40;99.90
25332;DHT22;13284;52.748;13.452;2023-08-06T06:22:38;17.40;99.90
25332;DHT22;13284;52.748;13.452;2023-08-06T06:25:04;17.50;99.90
25332;DHT22;13284;52.748;13.452;2023-08-06T06:27:30;17.50;99.90
25332;DHT22;13284;52.748;13.452;2023-08-06T06:29:55;17.50;99.90
25332;DHT22;13284;52.748;13.452;2023-08-06T06:32:21;17.50;99.90
25332;DHT22;13284;52.748;13.452;2023-08-06T06:34:47;17.60;99.90
25332;DHT22;13284;52.748;13.452;2023-08-06T06:37:13;17.60;99.90
25332;DHT22;13284;52.748;13.452;2023-08-06T06:39:38;17.60;99.90
25332;DHT22;13284;52.748;13.452;2023-08-06T06:42:04;17.70;99.90
25332;DHT22;13284;52.748;13.452;2023-08-06T06:44:30;17.60;99.90
25332;DHT22;13284;52.748;13.452;2023-08-06T06:46:55;17.50;99.90
25332;DHT22;13284;52.748;13.452;2023-08-06T06:49:21;17.60;99.90
25332;DHT22;13284;52.748;13.452;2023-08-06T06:51:47;17.70;99.90
25332;DHT22;13284;52.748;13.452;2023-08-06T06:54:12;17.80;99.90
25332;DHT22;13284;52.748;13.452;2023-08-06T06:56:38;17.90;99.90
25332;DHT22;13284;52.748;13.452;2023-08-06T06:59:03;17.90;99.90
25332;DHT22;13284;52.748;13.452;2023-08-06T07:01:29;17.90;99.90
25332;DHT22;13284;52.748;13.452;2023-08-06T07:03:54;17.80;99.90
25332;DHT22;13284;52.748;13.452;2023-08-06T07:06:20;17.90;99.90
25332;DHT22;13284;52.748;13.452;2023-08-06T07:08:45;18.00;99.90
25332;DHT22;13284;52.748;13.452;2023-08-06T07:11:11;18.00;99.90
25332;DHT22;13284;52.748;13.452;2023-08-06T07:13:37;18.00;99.90
25332;DHT22;13284;52.748;13.452;2023-08-06T07:16:02;17.90;99.90
25332;DHT22;13284;52.748;13.452;2023-08-06T07:18:28;17.90;99.90
25332;DHT22;13284;52.748;13.452;2023-08-06T07:20:54;18.10;99.90
25332;DHT22;13284;52.748;13.452;2023-08-06T07:23:21;18.10;99.90
25332;DHT22;13284;52.748;13.452;2023-08-06T07:25:47;18.20;99.90
25332;DHT22;13284;52.748;13.452;2023-08-06T07:28:13;18.20;99.90
25332;DHT22;13284;52.748;13.452;2023-08-06T07:30:40;18.10;99.90
25332;DHT22;13284;52.748;13.452;2023-08-06T07:33:05;18.20;99.90
25332;DHT22;13284;52.748;13.452;2023-08-06T07:35:31;18.20;99.90
25332;DHT22;13284;52.748;13.452;2023-08-06T07:37:57;18.10;99.90
25332;DHT22;13284;52.748;13.452;2023-08-06T07:40:22;18.10;99.90
25332;DHT22;13284;52.748;13.452;2023-08-06T07:42:48;17.90;99.90
25332;DHT22;13284;52.748;13.452;2023-08-06T07:45:14;17.80;99.90
25332;DHT22;13284;52.748;13.452;2023-08-06T07:47:40;17.90;99.90
25332;DHT22;13284;52.748;13.452;2023-08-06T07:50:06;17.90;99.90
25332;DHT22;13284;52.748;13.452;2023-08-06T07:52:31;17.90;99.90
25332;DHT22;13284;52.748;13.452;2023-08-06T07:54:57;17.90;99.90
25332;DHT22;13284;52.748;13.452;2023-08-06T07:57:22;18.00;99.90
25332;DHT22;13284;52.748;13.452;2023-08-06T07:59:47;18.20;99.90
25332;DHT22;13284;52.748;13.452;2023-08-06T08:02:13;18.20;99.90
25332;DHT22;13284;52.748;13.452;2023-08-06T08:04:38;18.20;99.90
25332;DHT22;13284;52.748;13.452;2023-08-06T08:07:04;18.00;99.90
25332;DHT22;13284;52.748;13.452;2023-08-06T08:09:30;18.10;99.90
25332;DHT22;13284;52.748;13.452;2023-08-06T08:11:55;18.00;99.90
25332;DHT22;13284;52.748;13.452;2023-08-06T08:14:21;18.00;99.90
25332;DHT22;13284;52.748;13.452;2023-08-06T08:16:46;18.10;99.90
25332;DHT22;13284;52.748;13.452;2023-08-06T08:19:12;18.00;99.90
25332;DHT22;13284;52.748;13.452;2023-08-06T08:21:37;18.20;99.90
25332;DHT22;13284;52.748;13.452;2023-08-06T08:24:04;18.20;99.90
25332;DHT22;13284;52.748;13.452;2023-08-06T08:26:30;18.00;99.90
25332;DHT22;13284;52.748;13.452;2023-08-06T08:28:56;18.20;99.90
25332;DHT22;13284;52.748;13.452;2023-08-06T08:31:22;18.30;99.90
25332;DHT22;13284;52.748;13.452;2023-08-06T08:33:47;18.30;99.90
25332;DHT22;13284;52.748;13.452;2023-08-06T08:36:13;18.20;99.90
25332;DHT22;13284;52.748;13.452;2023-08-06T08:38:38;18.10;99.90
25332;DHT22;13284;52.748;13.452;2023-08-06T08:41:04;18.10;99.90
25332;DHT22;13284;52.748;13.452;2023-08-06T08:43:30;18.00;99.90
25332;DHT22;13284;52.748;13.452;2023-08-06T08:45:56;17.90;99.90
25332;DHT22;13284;52.748;13.452;2023-08-06T08:48:24;17.80;99.90
25332;DHT22;13284;52.748;13.452;2023-08-06T08:50:50;17.90;99.90
25332;DHT22;13284;52.748;13.452;2023-08-06T08:53:16;18.10;99.90
25332;DHT22;13284;52.748;13.452;2023-08-06T08:55:43;18.10;99.90
25332;DHT22;13284;52.748;13.452;2023-08-06T08:58:10;18.00;99.90
25332;DHT22;13284;52.748;13.452;2023-08-06T09:00:35;18.00;99.90
25332;DHT22;13284;52.748;13.452;2023-08-06T09:03:01;18.10;99.90
25332;DHT22;13284;52.748;13.452;2023-08-06T09:05:29;18.10;99.90
25332;DHT22;13284;52.748;13.452;2023-08-06T09:08:02;18.10;99.90
25332;DHT22;13284;52.748;13.452;2023-08-06T09:10:28;18.10;99.90
25332;DHT22;13284;52.748;13.452;2023-08-06T09:12:54;18.00;99.90
25332;DHT22;13284;52.748;13.452;2023-08-06T09:15:24;18.00;99.90
25332;DHT22;13284;52.748;13.452;2023-08-06T09:17:49;18.00;99.90
25332;DHT22;13284;52.748;13.452;2023-08-06T09:20:15;18.00;99.90
25332;DHT22;13284;52.748;13.452;2023-08-06T09:22:41;18.10;99.90
25332;DHT22;13284;52.748;13.452;2023-08-06T09:25:07;18.10;99.90
25332;DHT22;13284;52.748;13.452;2023-08-06T09:27:37;18.10;99.90
25332;DHT22;13284;52.748;13.452;2023-08-06T09:30:03;18.10;99.90
25332;DHT22;13284;52.748;13.452;2023-08-06T09:32:48;18.10;99.90
25332;DHT22;13284;52.748;13.452;2023-08-06T09:35:16;18.10;99.90
25332;DHT22;13284;52.748;13.452;2023-08-06T09:37:42;18.30;99.90
25332;DHT22;13284;52.748;13.452;2023-08-06T09:40:33;18.20;99.90
25332;DHT22;13284;52.748;13.452;2023-08-06T09:42:59;18.30;99.90
25332;DHT22;13284;52.748;13.452;2023-08-06T09:45:35;18.30;99.90
25332;DHT22;13284;52.748;13.452;2023-08-06T09:48:08;18.20;99.90
25332;DHT22;13284;52.748;13.452;2023-08-06T09:50:38;18.30;99.90
25332;DHT22;13284;52.748;13.452;2023-08-06T09:53:05;18.30;99.90
25332;DHT22;13284;52.748;13.452;2023-08-06T09:55:32;18.30;99.90
25332;DHT22;13284;52.748;13.452;2023-08-06T09:57:59;18.20;99.90
25332;DHT22;13284;52.748;13.452;2023-08-06T10:00:25;18.30;99.90
25332;DHT22;13284;52.748;13.452;2023-08-06T10:02:53;18.40;99.90
25332;DHT22;13284;52.748;13.452;2023-08-06T10:05:22;18.60;99.90
25332;DHT22;13284;52.748;13.452;2023-08-06T10:07:48;18.50;99.90
25332;DHT22;13284;52.748;13.452;2023-08-06T10:10:14;18.50;99.90
25332;DHT22;13284;52.748;13.452;2023-08-06T10:12:44;18.10;99.90
25332;DHT22;13284;52.748;13.452;2023-08-06T10:15:14;18.30;99.90
25332;DHT22;13284;52.748;13.452;2023-08-06T10:17:42;18.40;99.90
25332;DHT22;13284;52.748;13.452;2023-08-06T10:20:09;18.50;99.90
25332;DHT22;13284;52.748;13.452;2023-08-06T10:22:34;18.60;99.90
25332;DHT22;13284;52.748;13.452;2023-08-06T10:25:01;18.50;99.90
25332;DHT22;13284;52.748;13.452;2023-08-06T10:32:57;18.40;99.90
25332;DHT22;13284;52.748;13.452;2023-08-06T10:35:44;18.50;99.90
25332;DHT22;13284;52.748;13.452;2023-08-06T10:40:40;18.70;99.90
25332;DHT22;13284;52.748;13.452;2023-08-06T10:43:06;18.60;99.90
25332;DHT22;13284;52.748;13.452;2023-08-06T10:45:37;18.40;99.90
25332;DHT22;13284;52.748;13.452;2023-08-06T10:48:03;18.40;99.90
25332;DHT22;13284;52.748;13.452;2023-08-06T10:50:29;18.40;99.90
25332;DHT22;13284;52.748;13.452;2023-08-06T10:52:57;18.50;99.90
25332;DHT22;13284;52.748;13.452;2023-08-06T10:55:29;18.30;99.90
25332;DHT22;13284;52.748;13.452;2023-08-06T10:57:55;18.30;99.90
25332;DHT22;13284;52.748;13.452;2023-08-06T11:00:22;18.40;99.90
25332;DHT22;13284;52.748;13.452;2023-08-06T11:02:49;18.40;99.90
25332;DHT22;13284;52.748;13.452;2023-08-06T11:05:16;18.40;99.90
25332;DHT22;13284;52.748;13.452;2023-08-06T11:07:42;18.40;99.90
25332;DHT22;13284;52.748;13.452;2023-08-06T11:10:09;18.40;99.90
25332;DHT22;13284;52.748;13.452;2023-08-06T11:12:37;18.50;99.90
25332;DHT22;13284;52.748;13.452;2023-08-06T11:15:03;18.30;99.90
25332;DHT22;13284;52.748;13.452;2023-08-06T11:17:31;18.40;99.90
25332;DHT22;13284;52.748;13.452;2023-08-06T11:20:02;18.50;99.90
25332;DHT22;13284;52.748;13.452;2023-08-06T11:22:28;18.50;99.90
25332;DHT22;13284;52.748;13.452;2023-08-06T11:24:54;18.50;99.90
25332;DHT22;13284;52.748;13.452;2023-08-06T11:27:20;18.50;99.90
25332;DHT22;13284;52.748;13.452;2023-08-06T11:29:46;18.30;99.90
25332;DHT22;13284;52.748;13.452;2023-08-06T11:32:11;18.40;99.90
25332;DHT22;13284;52.748;13.452;2023-08-06T11:34:39;18.50;99.90
25332;DHT22;13284;52.748;13.452;2023-08-06T11:37:06;18.60;99.90
25332;DHT22;13284;52.748;13.452;2023-08-06T11:39:35;18.60;99.90
25332;DHT22;13284;52.748;13.452;2023-08-06T11:42:05;18.60;99.90
25332;DHT22;13284;52.748;13.452;2023-08-06T11:44:34;18.50;99.90
25332;DHT22;13284;52.748;13.452;2023-08-06T11:47:00;18.30;99.90
25332;DHT22;13284;52.748;13.452;2023-08-06T11:49:46;18.40;99.90
25332;DHT22;13284;52.748;13.452;2023-08-06T11:52:25;18.50;99.90
25332;DHT22;13284;52.748;13.452;2023-08-06T11:55:03;18.50;99.90
25332;DHT22;13284;52.748;13.452;2023-08-06T11:57:33;18.50;99.90
25332;DHT22;13284;52.748;13.452;2023-08-06T12:00:04;18.30;99.90
25332;DHT22;13284;52.748;13.452;2023-08-06T12:02:32;18.30;99.90
25332;DHT22;13284;52.748;13.452;2023-08-06T12:05:00;18.30;99.90
25332;DHT22;13284;52.748;13.452;2023-08-06T12:07:33;18.30;99.90
25332;DHT22;13284;52.748;13.452;2023-08-06T12:10:01;18.30;99.90
25332;DHT22;13284;52.748;13.452;2023-08-06T12:12:27;18.50;99.90
25332;DHT22;13284;52.748;13.452;2023-08-06T12:14:53;18.40;99.90
25332;DHT22;13284;52.748;13.452;2023-08-06T12:17:19;18.30;99.90
25332;DHT22;13284;52.748;13.452;2023-08-06T12:19:45;18.50;99.90
25332;DHT22;13284;52.748;13.452;2023-08-06T12:22:11;18.40;99.90
25332;DHT22;13284;52.748;13.452;2023-08-06T12:24:38;18.30;99.90
25332;DHT22;13284;52.748;13.452;2023-08-06T12:27:04;18.40;99.90
25332;DHT22;13284;52.748;13.452;2023-08-06T12:29:29;18.50;99.90
25332;DHT22;13284;52.748;13.452;2023-08-06T12:31:56;18.40;99.90
25332;DHT22;13284;52.748;13.452;2023-08-06T12:34:22;18.60;99.90
25332;DHT22;13284;52.748;13.452;2023-08-06T12:36:47;18.50;99.90
25332;DHT22;13284;52.748;13.452;2023-08-06T12:39:13;18.30;99.90
25332;DHT22;13284;52.748;13.452;2023-08-06T12:41:38;18.40;99.90
25332;DHT22;13284;52.748;13.452;2023-08-06T12:44:04;18.30;99.90
25332;DHT22;13284;52.748;13.452;2023-08-06T12:46:30;18.20;99.90
25332;DHT22;13284;52.748;13.452;2023-08-06T12:48:56;18.30;99.90
25332;DHT22;13284;52.748;13.452;2023-08-06T12:51:23;18.20;99.90
25332;DHT22;13284;52.748;13.452;2023-08-06T12:53:48;18.30;99.90
25332;DHT22;13284;52.748;13.452;2023-08-06T12:56:14;18.30;99.90
25332;DHT22;13284;52.748;13.452;2023-08-06T12:58:39;18.20;99.90
25332;DHT22;13284;52.748;13.452;2023-08-06T13:01:06;18.20;99.90
25332;DHT22;13284;52.748;13.452;2023-08-06T13:03:31;18.20;99.90
25332;DHT22;13284;52.748;13.452;2023-08-06T13:05:56;18.10;99.90
25332;DHT22;13284;52.748;13.452;2023-08-06T13:08:23;18.10;99.90
25332;DHT22;13284;52.748;13.452;2023-08-06T13:10:48;18.00;99.90
25332;DHT22;13284;52.748;13.452;2023-08-06T13:13:14;18.00;99.90
25332;DHT22;13284;52.748;13.452;2023-08-06T13:15:39;18.10;99.90
25332;DHT22;13284;52.748;13.452;2023-08-06T13:18:05;18.20;99.90
25332;DHT22;13284;52.748;13.452;2023-08-06T13:20:31;18.20;99.90
25332;DHT22;13284;52.748;13.452;2023-08-06T13:22:58;18.20;99.90
25332;DHT22;13284;52.748;13.452;2023-08-06T13:25:24;18.20;99.90
25332;DHT22;13284;52.748;13.452;2023-08-06T13:27:50;18.30;99.90
25332;DHT22;13284;52.748;13.452;2023-08-06T13:30:16;18.10;99.90
25332;DHT22;13284;52.748;13.452;2023-08-06T13:32:43;18.10;99.90
25332;DHT22;13284;52.748;13.452;2023-08-06T13:35:09;18.10;99.90
25332;DHT22;13284;52.748;13.452;2023-08-06T13:37:35;18.10;99.90
25332;DHT22;13284;52.748;13.452;2023-08-06T13:40:00;17.90;99.90
25332;DHT22;13284;52.748;13.452;2023-08-06T13:42:26;17.90;99.90
25332;DHT22;13284;52.748;13.452;2023-08-06T13:44:51;17.90;99.90
25332;DHT22;13284;52.748;13.452;2023-08-06T13:47:17;17.90;99.90
25332;DHT22;13284;52.748;13.452;2023-08-06T13:49:42;18.00;99.90
25332;DHT22;13284;52.748;13.452;2023-08-06T13:52:08;17.80;99.90
25332;DHT22;13284;52.748;13.452;2023-08-06T13:54:33;17.90;99.90
25332;DHT22;13284;52.748;13.452;2023-08-06T13:56:59;17.70;99.90
25332;DHT22;13284;52.748;13.452;2023-08-06T13:59:24;17.80;99.90
25332;DHT22;13284;52.748;13.452;2023-08-06T14:01:50;17.80;99.90
25332;DHT22;13284;52.748;13.452;2023-08-06T14:04:16;17.90;99.90
25332;DHT22;13284;52.748;13.452;2023-08-06T14:06:41;17.90;99.90
25332;DHT22;13284;52.748;13.452;2023-08-06T14:09:07;17.90;99.90
25332;DHT22;13284;52.748;13.452;2023-08-06T14:11:33;17.80;99.90
25332;DHT22;13284;52.748;13.452;2023-08-06T14:13:59;17.90;99.90
25332;DHT22;13284;52.748;13.452;2023-08-06T14:16:25;17.80;99.90
25332;DHT22;13284;52.748;13.452;2023-08-06T14:18:51;17.80;99.90
25332;DHT22;13284;52.748;13.452;2023-08-06T14:21:16;17.70;99.90
25332;DHT22;13284;52.748;13.452;2023-08-06T14:23:42;17.60;99.90
25332;DHT22;13284;52.748;13.452;2023-08-06T14:26:07;17.70;99.90
25332;DHT22;13284;52.748;13.452;2023-08-06T14:28:33;17.60;99.90
25332;DHT22;13284;52.748;13.452;2023-08-06T14:30:58;17.70;99.90
25332;DHT22;13284;52.748;13.452;2023-08-06T14:33:24;17.80;99.90
25332;DHT22;13284;52.748;13.452;2023-08-06T14:35:50;17.90;99.90
25332;DHT22;13284;52.748;13.452;2023-08-06T14:38:16;17.70;99.90
25332;DHT22;13284;52.748;13.452;2023-08-06T14:40:43;17.80;99.90
25332;DHT22;13284;52.748;13.452;2023-08-06T14:43:09;17.50;99.90
25332;DHT22;13284;52.748;13.452;2023-08-06T14:45:38;17.50;99.90
25332;DHT22;13284;52.748;13.452;2023-08-06T14:48:04;17.50;99.90
25332;DHT22;13284;52.748;13.452;2023-08-06T14:50:29;17.40;99.90
25332;DHT22;13284;52.748;13.452;2023-08-06T14:52:55;17.30;99.90
25332;DHT22;13284;52.748;13.452;2023-08-06T14:55:24;17.40;99.90
25332;DHT22;13284;52.748;13.452;2023-08-06T14:57:50;17.30;99.90
25332;DHT22;13284;52.748;13.452;2023-08-06T15:00:16;17.40;99.90
25332;DHT22;13284;52.748;13.452;2023-08-06T15:02:41;17.30;99.90
25332;DHT22;13284;52.748;13.452;2023-08-06T15:05:07;17.30;99.90
25332;DHT22;13284;52.748;13.452;2023-08-06T15:07:32;17.20;99.90
25332;DHT22;13284;52.748;13.452;2023-08-06T15:10:01;17.20;99.90
25332;DHT22;13284;52.748;13.452;2023-08-06T15:12:26;17.10;99.90
25332;DHT22;13284;52.748;13.452;2023-08-06T15:14:52;17.20;99.90
25332;DHT22;13284;52.748;13.452;2023-08-06T15:17:18;17.10;99.90
25332;DHT22;13284;52.748;13.452;2023-08-06T15:19:43;17.20;99.90
25332;DHT22;13284;52.748;13.452;2023-08-06T15:22:09;17.30;99.90
25332;DHT22;13284;52.748;13.452;2023-08-06T15:24:37;17.30;99.90